createdAt,value
2023-11-11T00:00:41.427Z,10.60
2023-11-11T00:03:44.210Z,6.63
2023-11-11T00:06:46.604Z,8.25
2023-11-11T00:09:48.892Z,7.45
2023-11-11T00:12:51.243Z,6.43
2023-11-11T00:15:53.627Z,6.47
2023-11-11T00:18:55.843Z,5.38
2023-11-11T00:21:58.063Z,6.35
2023-11-11T00:25:00.280Z,6.33
2023-11-11T00:28:02.494Z,7.13
2023-11-11T00:31:07.237Z,4.45
2023-11-11T00:34:09.477Z,4.30
2023-11-11T00:37:11.875Z,5.63
2023-11-11T00:40:15.213Z,4.97
2023-11-11T00:43:17.745Z,5.27
2023-11-11T00:46:20.034Z,6.55
2023-11-11T00:49:22.593Z,10.23
2023-11-11T00:52:24.825Z,5.55
2023-11-11T00:55:28.375Z,8.53
2023-11-11T00:58:31.463Z,7.53
2023-11-11T01:01:35.874Z,8.00
2023-11-11T01:04:38.527Z,5.68
2023-11-11T01:07:40.818Z,7.07
2023-11-11T01:10:43.195Z,6.43
2023-11-11T01:13:45.470Z,6.57
2023-11-11T01:16:49.005Z,10.52
2023-11-11T01:19:51.489Z,5.82
2023-11-11T01:22:53.864Z,10.23
2023-11-11T01:25:56.188Z,9.75
2023-11-11T01:28:58.416Z,6.90
2023-11-11T01:32:00.647Z,8.90
2023-11-11T01:35:02.973Z,6.63
2023-11-11T01:38:05.274Z,6.28
2023-11-11T01:41:07.774Z,6.00
2023-11-11T01:44:10.467Z,10.53
2023-11-11T01:47:12.723Z,7.00
2023-11-11T01:50:15.111Z,5.32
2023-11-11T01:53:18.146Z,7.80
2023-11-11T01:56:20.730Z,7.57
2023-11-11T01:59:24.307Z,7.97
2023-11-11T02:02:26.694Z,12.63
2023-11-11T02:05:29.859Z,9.07
2023-11-11T02:08:32.590Z,8.95
2023-11-11T02:11:35.436Z,7.63
2023-11-11T02:14:38.677Z,7.37
2023-11-11T02:17:41.494Z,8.90
2023-11-11T02:20:43.870Z,11.45
2023-11-11T02:23:47.404Z,8.15
2023-11-11T02:26:50.596Z,8.17
2023-11-11T02:29:52.821Z,7.43
2023-11-11T02:32:55.481Z,7.97
2023-11-11T02:35:57.939Z,8.77
2023-11-11T02:39:00.926Z,10.88
2023-11-11T02:42:03.228Z,8.07
2023-11-11T02:45:06.647Z,13.10
2023-11-11T02:48:08.995Z,7.20
2023-11-11T02:51:11.284Z,10.05
2023-11-11T02:54:13.636Z,10.48
2023-11-11T02:57:15.918Z,9.20
2023-11-11T03:00:19.919Z,9.73
2023-11-11T03:03:22.789Z,10.18
2023-11-11T03:06:26.127Z,13.07
2023-11-11T03:09:28.709Z,6.40
2023-11-11T03:12:34.288Z,10.27
2023-11-11T03:15:39.466Z,11.20
2023-11-11T03:18:41.715Z,11.05
2023-11-11T03:21:44.139Z,9.93
2023-11-11T03:24:46.761Z,9.55
2023-11-11T03:27:49.453Z,10.55
2023-11-11T03:30:51.699Z,11.40
2023-11-11T03:33:54.132Z,11.75
2023-11-11T03:36:56.330Z,9.90
2023-11-11T03:39:58.682Z,14.52
2023-11-11T03:43:00.980Z,12.98
2023-11-11T03:46:03.821Z,11.87
2023-11-11T03:49:06.799Z,7.78
2023-11-11T03:52:10.612Z,15.63
2023-11-11T03:55:13.004Z,14.93
2023-11-11T03:58:15.328Z,13.50
2023-11-11T04:01:17.599Z,9.87
2023-11-11T04:04:19.996Z,9.48
2023-11-11T04:07:22.957Z,10.35
2023-11-11T04:10:25.251Z,10.82
2023-11-11T04:13:28.678Z,10.33
2023-11-11T04:16:31.486Z,10.13
2023-11-11T04:19:33.844Z,9.18
2023-11-11T04:22:36.111Z,14.55
2023-11-11T04:25:38.561Z,13.23
2023-11-11T04:28:45.140Z,12.50
2023-11-11T04:31:47.683Z,13.80
2023-11-11T04:34:51.247Z,7.97
2023-11-11T04:37:53.903Z,12.43
2023-11-11T04:40:58.298Z,8.85
2023-11-11T04:44:00.556Z,9.83
2023-11-11T04:47:02.759Z,14.43
2023-11-11T04:50:05.739Z,6.40
2023-11-11T04:53:10.923Z,11.65
2023-11-11T04:56:13.190Z,11.00
2023-11-11T04:59:15.360Z,7.23
2023-11-11T05:02:18.004Z,11.37
2023-11-11T05:05:21.833Z,10.05
2023-11-11T05:08:24.556Z,9.27
2023-11-11T05:11:26.854Z,11.25
2023-11-11T05:14:30.181Z,10.90
2023-11-11T05:17:32.488Z,10.40
2023-11-11T05:20:34.716Z,9.18
2023-11-11T05:23:36.929Z,11.43
2023-11-11T05:26:39.984Z,6.20
2023-11-11T05:29:42.594Z,12.80
2023-11-11T05:32:44.820Z,9.23
2023-11-11T05:35:48.961Z,8.70
2023-11-11T05:38:51.329Z,10.23
2023-11-11T05:41:53.533Z,6.30
2023-11-11T05:44:55.778Z,9.40
2023-11-11T05:47:58.040Z,15.30
2023-11-11T05:51:01.237Z,15.32
2023-11-11T05:54:03.479Z,10.68
2023-11-11T05:57:05.757Z,12.73
2023-11-11T06:00:13.287Z,9.17
2023-11-11T06:03:16.011Z,7.87
2023-11-11T06:06:18.428Z,11.80
2023-11-11T06:09:20.697Z,8.98
2023-11-11T06:12:22.962Z,11.18
2023-11-11T06:15:26.570Z,7.85
2023-11-11T06:18:28.913Z,7.17
2023-11-11T06:21:31.207Z,11.48
2023-11-11T06:24:33.458Z,10.38
2023-11-11T06:27:35.874Z,10.05
2023-11-11T06:30:38.175Z,9.07
2023-11-11T06:33:41.110Z,14.10
2023-11-11T06:36:43.414Z,12.70
2023-11-11T06:39:45.862Z,10.23
2023-11-11T06:42:48.140Z,11.60
2023-11-11T06:45:50.404Z,10.07
2023-11-11T06:48:52.915Z,13.30
2023-11-11T06:51:55.174Z,15.32
2023-11-11T06:54:57.491Z,10.90
2023-11-11T06:58:00.290Z,11.50
2023-11-11T07:01:02.691Z,11.33
2023-11-11T07:04:05.610Z,11.60
2023-11-11T07:07:08.551Z,13.60
2023-11-11T07:10:13.254Z,10.43
2023-11-11T07:13:17.014Z,11.45
2023-11-11T07:16:19.301Z,11.73
2023-11-11T07:19:24.850Z,12.93
2023-11-11T07:22:27.834Z,11.43
2023-11-11T07:25:32.641Z,10.70
2023-11-11T07:28:34.848Z,11.80
2023-11-11T07:31:38.153Z,11.97
2023-11-11T07:34:40.380Z,10.80
2023-11-11T07:37:50.943Z,13.68
2023-11-11T07:40:53.169Z,11.38
2023-11-11T07:43:57.217Z,15.60
2023-11-11T07:46:59.392Z,13.60
2023-11-11T07:50:01.714Z,9.90
2023-11-11T07:53:05.930Z,9.07
2023-11-11T07:56:08.179Z,13.82
2023-11-11T07:59:10.417Z,9.95
2023-11-11T08:02:15.976Z,15.67
2023-11-11T08:05:18.682Z,13.47
2023-11-11T08:08:20.995Z,15.55
2023-11-11T08:11:23.723Z,9.10
2023-11-11T08:14:25.995Z,10.30
2023-11-11T08:17:28.248Z,9.35
2023-11-11T08:20:30.705Z,8.07
2023-11-11T08:23:33.842Z,13.07
2023-11-11T08:26:36.114Z,11.45
2023-11-11T08:29:38.383Z,11.30
2023-11-11T08:32:43.610Z,11.10
2023-11-11T08:35:46.228Z,10.93
2023-11-11T08:38:50.298Z,10.45
2023-11-11T08:41:53.517Z,9.27
2023-11-11T08:44:59.714Z,11.50
2023-11-11T08:48:02.296Z,8.27
2023-11-11T08:51:05.102Z,9.57
2023-11-11T08:54:07.443Z,9.00
2023-11-11T08:57:09.646Z,10.80
2023-11-11T09:00:13.512Z,10.57
2023-11-11T09:03:16.918Z,9.17
2023-11-11T09:06:19.347Z,11.07
2023-11-11T09:09:22.618Z,8.95
2023-11-11T09:12:25.331Z,10.50
2023-11-11T09:15:27.686Z,9.57
2023-11-11T09:18:30.627Z,8.70
2023-11-11T09:21:33.151Z,10.57
2023-11-11T09:24:35.426Z,8.40
2023-11-11T09:27:37.754Z,7.88
2023-11-11T09:30:40.293Z,7.75
2023-11-11T09:33:43.023Z,7.53
2023-11-11T09:36:45.781Z,6.50
2023-11-11T09:39:48.051Z,8.70
2023-11-11T09:42:50.453Z,9.55
2023-11-11T09:45:53.654Z,11.20
2023-11-11T09:48:56.560Z,11.63
2023-11-11T09:51:58.916Z,8.30
2023-11-11T09:55:02.465Z,9.85
2023-11-11T09:58:05.320Z,9.10
2023-11-11T10:01:07.973Z,13.10
2023-11-11T10:04:13.134Z,9.80
2023-11-11T10:07:16.808Z,10.43
2023-11-11T10:10:20.117Z,6.95
2023-11-11T10:13:22.515Z,7.80
2023-11-11T10:16:28.800Z,8.20
2023-11-11T10:19:32.397Z,8.33
2023-11-11T10:22:38.753Z,10.30
2023-11-11T10:25:41.694Z,11.38
2023-11-11T10:28:49.058Z,7.80
2023-11-11T10:31:53.120Z,9.75
2023-11-11T10:34:55.514Z,8.87
2023-11-11T10:37:58.033Z,9.73
2023-11-11T10:41:00.349Z,7.38
2023-11-11T10:44:03.249Z,13.27
2023-11-11T10:47:06.907Z,9.93
2023-11-11T10:50:09.613Z,10.93
2023-11-11T10:53:13.745Z,8.40
2023-11-11T10:56:16.821Z,11.23
2023-11-11T10:59:20.020Z,10.10
2023-11-11T11:02:24.596Z,8.25
2023-11-11T11:05:46.996Z,12.43
2023-11-11T11:08:58.419Z,8.83
2023-11-11T11:12:07.403Z,12.02
2023-11-11T11:15:14.624Z,10.65
2023-11-11T11:18:23.832Z,10.07
2023-11-11T11:21:31.945Z,11.03
2023-11-11T11:24:34.155Z,8.13
2023-11-11T11:27:36.425Z,9.55
2023-11-11T11:30:52.265Z,10.13
2023-11-11T11:33:54.673Z,7.45
2023-11-11T11:36:57.042Z,12.00
2023-11-11T11:40:09.603Z,8.33
2023-11-11T11:43:12.066Z,6.70
2023-11-11T11:46:14.428Z,9.85
2023-11-11T11:49:16.964Z,7.53
2023-11-11T11:52:20.662Z,7.80
2023-11-11T11:55:23.759Z,10.23
2023-11-11T11:58:27.043Z,10.73
2023-11-11T12:01:30.266Z,9.38
2023-11-11T12:04:32.657Z,7.35
2023-11-11T12:07:39.445Z,8.38
2023-11-11T12:10:48.575Z,6.73
2023-11-11T12:13:51.906Z,8.13
2023-11-11T12:16:54.286Z,10.52
2023-11-11T12:19:58.754Z,10.00
2023-11-11T12:23:01.125Z,7.10
2023-11-11T12:26:03.505Z,10.67
2023-11-11T12:29:06.220Z,9.68
2023-11-11T12:32:15.146Z,6.68
2023-11-11T12:35:17.579Z,5.22
2023-11-11T12:38:26.785Z,6.93
2023-11-11T12:41:29.016Z,7.50
2023-11-11T12:44:40.110Z,5.28
2023-11-11T12:47:50.179Z,4.95
2023-11-11T12:50:54.221Z,5.60
2023-11-11T12:53:57.015Z,5.07
2023-11-11T12:56:59.282Z,6.80
2023-11-11T13:00:02.344Z,4.40
2023-11-11T13:03:04.950Z,7.20
2023-11-11T13:06:08.279Z,4.65
2023-11-11T13:09:20.735Z,8.07
2023-11-11T13:12:23.515Z,6.37
2023-11-11T13:15:25.747Z,3.55
2023-11-11T13:18:28.470Z,4.90
2023-11-11T13:21:31.232Z,5.05
2023-11-11T13:24:34.170Z,3.67
2023-11-11T13:27:37.864Z,3.13
2023-11-11T13:30:40.069Z,4.15
2023-11-11T13:33:45.012Z,2.08
2023-11-11T13:36:47.281Z,2.83
2023-11-11T13:39:52.946Z,2.53
2023-11-11T13:42:56.370Z,3.00
2023-11-11T13:45:58.925Z,3.17
2023-11-11T13:49:01.908Z,3.17
2023-11-11T13:52:04.342Z,2.47
2023-11-11T13:55:06.963Z,4.37
2023-11-11T13:58:09.252Z,2.87
2023-11-11T14:01:11.470Z,2.53
2023-11-11T14:04:16.495Z,2.40
2023-11-11T14:07:19.753Z,8.15
2023-11-11T14:10:26.402Z,5.30
2023-11-11T14:13:30.804Z,3.83
2023-11-11T14:16:33.479Z,3.88
2023-11-11T14:19:36.222Z,7.50
2023-11-11T14:22:46.847Z,6.65
2023-11-11T14:25:55.237Z,6.67
2023-11-11T14:28:57.736Z,6.17
2023-11-11T14:32:00.160Z,5.93
2023-11-11T14:35:02.627Z,10.43
2023-11-11T14:38:05.920Z,6.90
2023-11-11T14:41:08.960Z,8.13
2023-11-11T14:44:12.542Z,8.63
2023-11-11T14:47:15.464Z,10.38
2023-11-11T14:50:18.642Z,9.15
2023-11-11T14:53:20.991Z,9.13
2023-11-11T14:56:23.310Z,6.03
2023-11-11T14:59:25.545Z,6.77
2023-11-11T15:02:28.423Z,10.63
2023-11-11T15:05:30.846Z,6.47
2023-11-11T15:08:35.263Z,5.78
2023-11-11T15:11:37.554Z,9.03
2023-11-11T15:14:40.347Z,6.50
2023-11-11T15:17:44.983Z,4.45
2023-11-11T15:20:47.427Z,5.22
2023-11-11T15:23:50.604Z,2.00
2023-11-11T15:26:55.862Z,3.20
2023-11-11T15:29:59.203Z,4.60
2023-11-11T15:33:04.042Z,3.30
2023-11-11T15:36:07.151Z,3.33
2023-11-11T15:39:23.414Z,4.35
2023-11-11T15:42:25.589Z,4.40
2023-11-11T15:45:27.824Z,5.33
2023-11-11T15:48:30.565Z,8.10
2023-11-11T15:51:32.909Z,5.85
2023-11-11T15:54:35.494Z,7.25
2023-11-11T15:57:38.800Z,10.83
2023-11-11T16:00:41.095Z,7.23
2023-11-11T16:03:45.711Z,7.43
2023-11-11T16:06:48.355Z,6.38
2023-11-11T16:09:52.500Z,8.20
2023-11-11T16:12:54.953Z,7.70
2023-11-11T16:15:57.101Z,8.17
2023-11-11T16:18:59.401Z,5.40
2023-11-11T16:22:01.787Z,6.10
2023-11-11T16:25:08.277Z,3.97
2023-11-11T16:28:10.856Z,5.17
2023-11-11T16:31:20.153Z,4.93
2023-11-11T16:34:22.874Z,4.80
2023-11-11T16:37:25.068Z,4.35
2023-11-11T16:40:27.288Z,1.92
2023-11-11T16:43:29.598Z,1.80
2023-11-11T16:46:32.645Z,2.07
2023-11-11T16:49:35.202Z,2.30
2023-11-11T16:52:37.528Z,2.75
2023-11-11T16:55:39.808Z,3.90
2023-11-11T16:58:42.248Z,1.07
2023-11-11T17:01:45.088Z,1.80
2023-11-11T17:04:47.448Z,1.40
2023-11-11T17:07:55.928Z,3.20
2023-11-11T17:10:59.111Z,3.22
2023-11-11T17:14:01.387Z,0.63
2023-11-11T17:17:06.323Z,1.90
2023-11-11T17:20:10.087Z,0.95
2023-11-11T17:23:12.524Z,1.63
2023-11-11T17:26:14.980Z,1.95
2023-11-11T17:29:17.274Z,0.50
2023-11-11T17:32:19.448Z,1.50
2023-11-11T17:35:21.722Z,0.47
2023-11-11T17:38:23.890Z,2.10
2023-11-11T17:41:26.073Z,1.23
2023-11-11T17:44:28.282Z,0.60
2023-11-11T17:47:30.686Z,1.10
2023-11-11T17:50:33.063Z,0.45
2023-11-11T17:53:35.333Z,0.35
2023-11-11T17:56:37.659Z,0.90
2023-11-11T17:59:40.646Z,0.70
2023-11-11T18:02:43.266Z,0.60
2023-11-11T18:05:45.608Z,0.68
2023-11-11T18:08:47.954Z,2.55
2023-11-11T18:11:50.211Z,0.73
2023-11-11T18:14:52.577Z,0.30
2023-11-11T18:17:54.843Z,0.30
2023-11-11T18:20:57.164Z,0.35
2023-11-11T18:24:00.211Z,0.63
2023-11-11T18:27:03.830Z,0.20
2023-11-11T18:30:07.162Z,0.30
2023-11-11T18:33:11.261Z,0.20
2023-11-11T18:36:14.360Z,0.90
2023-11-11T18:39:17.371Z,0.47
2023-11-11T18:42:19.616Z,0.93
2023-11-11T18:45:22.013Z,0.83
2023-11-11T18:48:24.243Z,0.40
2023-11-11T18:51:26.636Z,0.68
2023-11-11T18:54:29.784Z,0.30
2023-11-11T18:57:32.074Z,1.05
2023-11-11T19:00:34.370Z,0.87
2023-11-11T19:03:36.758Z,1.13
2023-11-11T19:06:39.180Z,0.28
2023-11-11T19:09:41.415Z,0.45
2023-11-11T19:12:43.848Z,0.60
2023-11-11T19:15:46.057Z,0.30
2023-11-11T19:18:48.423Z,1.50
2023-11-11T19:21:50.653Z,1.27
2023-11-11T19:24:52.966Z,0.40
2023-11-11T19:27:59.013Z,0.20
2023-11-11T19:31:01.971Z,0.73
2023-11-11T19:34:05.516Z,0.60
2023-11-11T19:37:08.325Z,0.90
2023-11-11T19:40:10.852Z,0.32
2023-11-11T19:43:13.117Z,0.80
2023-11-11T19:46:16.151Z,1.27
2023-11-11T19:49:18.372Z,1.33
2023-11-11T19:52:20.608Z,0.65
2023-11-11T19:55:23.245Z,0.40
2023-11-11T19:58:25.559Z,0.30
2023-11-11T20:01:27.962Z,0.47
2023-11-11T20:04:30.471Z,0.10
2023-11-11T20:07:36.654Z,1.13
2023-11-11T20:10:39.052Z,1.08
2023-11-11T20:13:46.315Z,0.75
2023-11-11T20:16:48.837Z,0.40
2023-11-11T20:19:51.289Z,0.77
2023-11-11T20:22:53.570Z,0.88
2023-11-11T20:25:59.075Z,0.77
2023-11-11T20:29:05.228Z,2.03
2023-11-11T20:32:08.207Z,0.60
2023-11-11T20:35:13.325Z,1.03
2023-11-11T20:38:15.830Z,1.42
2023-11-11T20:41:19.102Z,0.57
2023-11-11T20:44:21.351Z,1.38
2023-11-11T20:47:23.856Z,0.63
2023-11-11T20:50:26.134Z,1.43
2023-11-11T20:53:28.389Z,0.45
2023-11-11T20:56:30.610Z,1.35
2023-11-11T20:59:35.150Z,0.60
2023-11-11T21:02:37.780Z,1.87
2023-11-11T21:05:40.047Z,0.67
2023-11-11T21:08:44.283Z,0.17
2023-11-11T21:11:46.605Z,0.45
2023-11-11T21:14:48.796Z,2.33
2023-11-11T21:17:51.679Z,0.60
2023-11-11T21:20:54.019Z,0.40
2023-11-11T21:23:56.195Z,0.80
2023-11-11T21:26:58.404Z,0.38
2023-11-11T21:30:00.737Z,1.10
2023-11-11T21:33:03.273Z,0.83
2023-11-11T21:36:08.833Z,0.90
2023-11-11T21:39:14.152Z,0.70
2023-11-11T21:42:16.400Z,0.73
2023-11-11T21:45:18.580Z,0.82
2023-11-11T21:48:20.804Z,0.67
2023-11-11T21:51:23.070Z,1.07
2023-11-11T21:54:25.296Z,0.85
2023-11-11T21:57:27.472Z,1.60
2023-11-11T22:00:29.750Z,1.00
2023-11-11T22:03:33.493Z,1.70
2023-11-11T22:06:35.837Z,0.53
2023-11-11T22:09:38.101Z,0.63
2023-11-11T22:12:40.755Z,2.63
2023-11-11T22:15:43.028Z,0.50
2023-11-11T22:18:45.336Z,0.20
2023-11-11T22:21:47.524Z,1.13
2023-11-11T22:24:49.739Z,0.75
2023-11-11T22:27:52.188Z,1.55
2023-11-11T22:30:55.009Z,1.20
2023-11-11T22:33:57.337Z,1.60
2023-11-11T22:36:59.766Z,1.40
2023-11-11T22:40:02.034Z,0.50
2023-11-11T22:43:04.316Z,0.52
2023-11-11T22:46:08.002Z,0.50
2023-11-11T22:49:10.294Z,0.50
2023-11-11T22:52:12.547Z,1.03
2023-11-11T22:55:15.226Z,1.33
2023-11-11T22:58:19.545Z,0.70
2023-11-11T23:01:24.747Z,0.63
2023-11-11T23:04:27.339Z,0.33
2023-11-11T23:07:29.711Z,0.40
2023-11-11T23:10:32.567Z,0.55
2023-11-11T23:13:35.073Z,1.00
2023-11-11T23:16:40.592Z,0.38
2023-11-11T23:19:43.103Z,1.10
2023-11-11T23:22:45.410Z,1.10
2023-11-11T23:25:47.672Z,1.08
2023-11-11T23:28:49.982Z,0.63
2023-11-11T23:31:52.399Z,1.15
2023-11-11T23:34:55.156Z,0.60
2023-11-11T23:37:57.961Z,0.50
2023-11-11T23:41:00.870Z,0.52
2023-11-11T23:44:03.266Z,0.30
2023-11-11T23:47:05.726Z,0.50
2023-11-11T23:50:08.420Z,0.60
2023-11-11T23:53:10.677Z,0.37
2023-11-11T23:56:13.012Z,0.70
2023-11-11T23:59:16.187Z,0.80
